Time;durP1;ratioP1;P1;durP2;ratioP2;P2;SDS_P1;SDS_P2;PMS_P1;PMS_P2;Temp;Humidity;BMP_temperature;BMP_pressure;BME280_temperature;BME280_humidity;BME280_pressure;Samples;Min_cycle;Max_cycle;Signal;HPM_P1;HPM_P2
2022/04/13 00:06:05;;;;;;;8.38;4.10;;;11.50;99.90;;;-146.41;100.00;57768.22;4995576;28;20042;-70
2022/04/13 00:08:32;;;;;;;9.35;3.72;;;11.50;99.90;;;-146.41;100.00;57768.22;5011342;28;20145;-70
2022/04/13 00:11:00;;;;;;;8.93;3.85;;;11.50;99.90;;;-146.41;100.00;57768.22;4993889;28;20074;-69
2022/04/13 00:13:28;;;;;;;11.38;4.10;;;11.60;99.90;;;-146.41;100.00;57768.22;4997446;28;20138;-70
2022/04/13 00:15:55;;;;;;;10.70;4.28;;;11.50;99.90;;;-146.41;100.00;57768.22;4996171;28;20046;-70
2022/04/13 00:18:22;;;;;;;11.05;3.70;;;11.50;99.90;;;-146.41;100.00;57768.22;5002890;28;20046;-70
2022/04/13 00:20:49;;;;;;;9.75;3.67;;;11.40;99.90;;;-146.41;100.00;57768.22;4997784;28;20148;-70
2022/04/13 00:23:16;;;;;;;8.38;3.55;;;11.40;99.90;;;-146.41;100.00;57768.22;4996769;28;20089;-70
2022/04/13 00:25:44;;;;;;;6.50;2.80;;;11.30;99.90;;;-146.41;100.00;57768.22;4997340;28;20485;-70
2022/04/13 00:28:12;;;;;;;8.02;2.75;;;11.30;99.90;;;-146.41;100.00;57768.22;4998743;28;20158;-70
2022/04/13 00:30:39;;;;;;;5.45;2.63;;;11.30;99.90;;;-146.41;100.00;57768.22;5002033;28;20121;-71
2022/04/13 00:33:07;;;;;;;6.82;2.47;;;11.30;99.90;;;-146.41;100.00;57768.22;5004584;28;20052;-70
2022/04/13 00:35:34;;;;;;;11.20;2.95;;;11.30;99.90;;;-146.41;100.00;57768.22;5001017;28;20092;-70
2022/04/13 00:38:01;;;;;;;6.38;2.72;;;11.30;99.90;;;-146.41;100.00;57768.22;5002549;28;20085;-70
2022/04/13 00:40:28;;;;;;;6.28;2.70;;;11.30;99.90;;;-146.41;100.00;57768.22;4980757;28;20136;-70
2022/04/13 00:42:55;;;;;;;7.03;3.33;;;11.40;99.90;;;-146.41;100.00;57768.22;5018638;28;20078;-70
2022/04/13 00:45:23;;;;;;;7.53;3.00;;;11.30;99.90;;;-146.41;100.00;57768.22;5013736;28;20046;-70
2022/04/13 00:47:50;;;;;;;8.93;3.38;;;11.20;99.90;;;-146.41;100.00;57768.22;4998562;28;20098;-70
2022/04/13 00:50:20;;;;;;;7.63;3.67;;;11.20;99.90;;;-146.41;100.00;57768.22;4998877;28;20500;-70
2022/04/13 00:52:49;;;;;;;6.93;2.90;;;11.20;99.90;;;-146.41;100.00;57768.22;5002770;28;20133;-69
2022/04/13 00:55:17;;;;;;;6.47;2.83;;;11.20;99.90;;;-146.41;100.00;57768.22;5000387;28;20839;-70
2022/04/13 00:57:46;;;;;;;6.13;3.28;;;11.20;99.90;;;-146.41;100.00;57768.22;4986581;28;20049;-70
2022/04/13 01:00:15;;;;;;;7.22;3.42;;;11.20;99.90;;;-146.41;100.00;57768.22;5005807;28;20042;-70
2022/04/13 01:02:43;;;;;;;7.72;4.07;;;11.20;99.90;;;-146.41;100.00;57768.22;4999468;28;20115;-70
2022/04/13 01:05:12;;;;;;;11.07;4.15;;;11.10;99.90;;;-146.41;100.00;57768.22;5000374;28;20448;-71
2022/04/13 01:07:41;;;;;;;11.95;3.90;;;11.00;99.90;;;-146.41;100.00;57768.22;5000966;28;20046;-70
2022/04/13 01:10:09;;;;;;;10.50;3.95;;;10.90;99.90;;;-146.41;100.00;57768.22;5030324;28;20129;-70
2022/04/13 01:12:36;;;;;;;7.70;4.18;;;10.80;99.90;;;-146.41;100.00;57768.22;4988697;28;20073;-70
2022/04/13 01:15:05;;;;;;;13.48;4.30;;;10.70;99.90;;;-146.41;100.00;57768.22;4997872;28;20042;-70
2022/04/13 01:17:33;;;;;;;6.47;3.65;;;10.80;99.90;;;-146.41;100.00;57768.22;4998794;28;20140;-71
2022/04/13 01:20:05;;;;;;;8.35;3.60;;;10.80;99.90;;;-146.41;100.00;57768.22;5034321;28;20121;-70
2022/04/13 01:22:32;;;;;;;7.72;3.85;;;10.80;99.90;;;-146.41;100.00;57768.22;5000984;28;20050;-69
2022/04/13 01:24:59;;;;;;;9.65;4.03;;;10.80;99.90;;;-146.41;100.00;57768.22;5000194;28;20136;-70
2022/04/13 01:27:27;;;;;;;8.15;4.22;;;10.80;99.90;;;-146.41;100.00;57768.22;4999772;28;20128;-70
2022/04/13 01:29:54;;;;;;;7.53;4.35;;;10.80;99.90;;;-146.41;100.00;57768.22;5002660;28;20080;-69
2022/04/13 01:32:22;;;;;;;7.90;4.70;;;10.80;99.90;;;-146.41;100.00;57768.22;5008799;28;20510;-70
2022/04/13 01:34:52;;;;;;;9.35;4.57;;;10.80;99.90;;;-146.41;100.00;57768.22;4999923;28;20042;-70
2022/04/13 01:37:20;;;;;;;9.80;5.30;;;10.80;99.90;;;-146.41;100.00;57768.22;4995927;28;20049;-71
2022/04/13 01:39:47;;;;;;;8.60;4.40;;;10.80;99.90;;;-146.41;100.00;57768.22;4999300;28;20136;-71
2022/04/13 01:42:14;;;;;;;9.15;5.13;;;10.80;99.90;;;-146.41;100.00;57768.22;4999380;28;20054;-70
2022/04/13 01:44:45;;;;;;;7.82;4.57;;;10.70;99.90;;;-146.41;100.00;57768.22;5000549;28;20104;-71
2022/04/13 01:47:13;;;;;;;7.93;4.00;;;10.70;99.90;;;-146.41;100.00;57768.22;4997613;28;20411;-70
2022/04/13 01:49:40;;;;;;;7.28;3.85;;;10.70;99.90;;;-146.41;100.00;57768.22;4999344;28;20476;-69
2022/04/13 01:52:09;;;;;;;8.60;3.78;;;10.60;99.90;;;-146.41;100.00;57768.22;4999934;28;20105;-69
2022/04/13 01:54:36;;;;;;;9.93;4.18;;;10.50;99.90;;;-146.41;100.00;57768.22;4998841;28;20512;-69
2022/04/13 01:57:04;;;;;;;12.80;3.72;;;10.50;99.90;;;-146.41;100.00;57768.22;5002036;28;20136;-69
2022/04/13 01:59:31;;;;;;;9.57;4.00;;;10.40;99.90;;;-146.41;100.00;57768.22;5002654;28;20073;-69
2022/04/13 02:01:58;;;;;;;8.57;3.92;;;10.40;99.90;;;-146.41;100.00;57768.22;5003479;28;20082;-70
2022/04/13 02:04:26;;;;;;;8.77;3.88;;;10.30;99.90;;;-146.41;100.00;57768.22;4998420;28;20100;-69
2022/04/13 02:06:54;;;;;;;9.55;3.75;;;10.30;99.90;;;-146.41;100.00;57768.22;4998163;28;20109;-69
2022/04/13 02:09:21;;;;;;;8.15;4.18;;;10.30;99.90;;;-146.41;100.00;57768.22;4996034;28;20038;-69
2022/04/13 02:11:48;;;;;;;9.65;3.63;;;10.30;99.90;;;-146.41;100.00;57768.22;4997002;28;20643;-69
2022/04/13 02:14:16;;;;;;;10.73;3.97;;;10.20;99.90;;;-146.41;100.00;57768.22;4993612;28;20492;-69
2022/04/13 02:16:43;;;;;;;7.50;3.80;;;10.20;99.90;;;-146.41;100.00;57768.22;4995071;28;20069;-68
2022/04/13 02:19:13;;;;;;;8.57;3.53;;;10.20;99.90;;;-146.41;100.00;57768.22;4997531;28;20128;-69
2022/04/13 02:21:40;;;;;;;7.50;3.22;;;10.20;99.90;;;-146.41;100.00;57768.22;5000087;28;20069;-69
2022/04/13 02:24:08;;;;;;;7.78;3.55;;;10.20;99.90;;;-146.41;100.00;57768.22;4995609;28;20085;-69
2022/04/13 02:26:35;;;;;;;8.02;4.07;;;10.20;99.90;;;-146.41;100.00;57768.22;4996048;28;20078;-69
2022/04/13 02:29:02;;;;;;;8.32;3.80;;;10.20;99.90;;;-146.41;100.00;57768.22;4997190;28;20082;-69
2022/04/13 02:31:29;;;;;;;8.40;3.97;;;10.20;99.90;;;-146.41;100.00;57768.22;4996165;28;20097;-69
2022/04/13 02:33:56;;;;;;;8.07;3.70;;;10.10;99.90;;;-146.41;100.00;57768.22;4995963;28;20126;-70
2022/04/13 02:36:24;;;;;;;8.48;3.70;;;10.10;99.90;;;-146.41;100.00;57768.22;4998368;28;20051;-69
2022/04/13 02:38:53;;;;;;;8.15;3.65;;;10.10;99.90;;;-146.41;100.00;57768.22;4994885;28;20137;-70
2022/04/13 02:41:22;;;;;;;10.02;4.07;;;10.00;99.90;;;-146.41;100.00;57768.22;4996499;28;20125;-69
2022/04/13 02:43:49;;;;;;;9.43;3.85;;;10.00;99.90;;;-146.41;100.00;57768.22;5001336;28;20124;-69
2022/04/13 02:46:16;;;;;;;7.82;4.35;;;10.00;99.90;;;-146.41;100.00;57768.22;5004840;28;20092;-69
2022/04/13 02:48:43;;;;;;;10.70;3.75;;;9.90;99.90;;;-146.41;100.00;57768.22;5000403;28;20726;-70
2022/04/13 02:51:10;;;;;;;13.80;7.03;;;9.90;99.90;;;-146.41;100.00;57768.22;4998814;28;20156;-70
2022/04/13 02:53:37;;;;;;;20.23;8.60;;;9.80;99.90;;;-146.41;100.00;57768.22;5001617;28;20072;-70
2022/04/13 02:56:05;;;;;;;25.15;12.57;;;9.80;99.90;;;-146.41;100.00;57768.22;5000656;28;20057;-70
2022/04/13 02:58:32;;;;;;;21.10;11.18;;;9.70;99.90;;;-146.41;100.00;57768.22;5010971;28;20058;-70
2022/04/13 03:00:59;;;;;;;12.43;5.28;;;9.60;99.90;;;-146.41;100.00;57768.22;5029737;28;20077;-70
2022/04/13 03:03:26;;;;;;;10.07;4.82;;;9.50;99.90;;;-146.41;100.00;57768.22;5001394;28;20045;-70
2022/04/13 03:05:53;;;;;;;13.68;5.13;;;9.50;99.90;;;-146.41;100.00;57768.22;4998912;28;20131;-70
2022/04/13 03:08:20;;;;;;;15.90;8.40;;;9.60;99.90;;;-146.41;100.00;57768.22;4996632;28;20527;-70
2022/04/13 03:10:47;;;;;;;15.80;7.07;;;9.60;99.90;;;-146.41;100.00;57768.22;4996636;28;20058;-69
2022/04/13 03:13:14;;;;;;;16.50;8.93;;;9.60;99.90;;;-146.41;100.00;57768.22;4999842;28;20376;-70
2022/04/13 03:15:41;;;;;;;8.40;4.20;;;9.60;99.90;;;-146.41;100.00;57768.22;4998166;28;20496;-70
2022/04/13 03:18:08;;;;;;;6.88;3.17;;;9.60;99.90;;;-146.41;100.00;57768.22;5015752;28;20153;-69
2022/04/13 03:20:35;;;;;;;8.57;3.70;;;9.60;99.90;;;-146.41;100.00;57768.22;5000002;28;20054;-70
2022/04/13 03:23:03;;;;;;;7.53;3.95;;;9.60;99.90;;;-146.41;100.00;57768.22;5003193;28;20089;-71
2022/04/13 03:25:30;;;;;;;8.25;3.55;;;9.60;99.90;;;-146.41;100.00;57768.22;5000944;28;20129;-70
2022/04/13 03:27:57;;;;;;;11.52;3.70;;;9.70;99.90;;;-146.41;100.00;57768.22;5004020;28;20489;-70
2022/04/13 03:30:24;;;;;;;9.82;3.72;;;9.60;99.90;;;-146.41;100.00;57768.22;5004899;28;20547;-70
2022/04/13 03:32:51;;;;;;;6.75;3.28;;;9.70;99.90;;;-146.41;100.00;57768.22;5000096;28;20205;-71
2022/04/13 03:35:18;;;;;;;7.43;4.07;;;9.70;99.90;;;-146.41;100.00;57768.22;4999409;28;20476;-70
2022/04/13 03:37:45;;;;;;;6.15;3.20;;;9.60;99.90;;;-146.41;100.00;57768.22;4999020;28;20137;-70
2022/04/13 03:40:13;;;;;;;10.93;4.15;;;9.80;99.90;;;-146.41;100.00;57768.22;4998951;28;20125;-70
2022/04/13 03:42:42;;;;;;;7.30;4.00;;;9.90;99.90;;;-146.41;100.00;57768.22;5002461;28;20058;-70
2022/04/13 03:45:11;;;;;;;11.00;5.88;;;9.90;99.90;;;-146.41;100.00;57768.22;5000470;28;20073;-71
2022/04/13 03:47:42;;;;;;;7.63;4.07;;;9.90;99.90;;;-146.41;100.00;57768.22;5000454;28;20082;-70
2022/04/13 03:50:10;;;;;;;11.80;5.15;;;9.90;99.90;;;-146.41;100.00;57768.22;5003600;28;20054;-70
2022/04/13 03:52:38;;;;;;;9.45;5.22;;;9.90;99.90;;;-146.41;100.00;57768.22;5002722;28;20147;-70
2022/04/13 03:55:08;;;;;;;8.75;4.53;;;9.90;99.90;;;-146.41;100.00;57768.22;5031769;28;20077;-70
2022/04/13 03:57:35;;;;;;;7.50;3.80;;;9.80;99.90;;;-146.41;100.00;57768.22;5002222;28;20096;-70
2022/04/13 04:00:06;;;;;;;7.78;3.85;;;9.70;99.90;;;-146.41;100.00;57768.22;4997023;28;20129;-70
2022/04/13 04:02:38;;;;;;;9.80;4.18;;;9.70;99.90;;;-146.41;100.00;57768.22;4985851;28;20097;-70
2022/04/13 04:05:06;;;;;;;9.20;3.50;;;9.70;99.90;;;-146.41;100.00;57768.22;4999659;28;20524;-70
2022/04/13 04:07:33;;;;;;;12.85;3.78;;;9.70;99.90;;;-146.41;100.00;57768.22;4987805;28;20077;-70
2022/04/13 04:10:01;;;;;;;6.78;3.63;;;9.70;99.90;;;-146.41;100.00;57768.22;4995111;28;20129;-70
2022/04/13 04:12:28;;;;;;;8.98;3.50;;;9.70;99.90;;;-146.41;100.00;57768.22;5003918;28;20497;-69
2022/04/13 04:15:00;;;;;;;10.60;3.47;;;9.70;99.90;;;-146.41;100.00;57768.22;4998515;28;20132;-70
2022/04/13 04:17:28;;;;;;;8.05;3.55;;;9.60;99.90;;;-146.41;100.00;57768.22;5003547;28;20416;-69
2022/04/13 04:19:55;;;;;;;8.98;3.78;;;9.60;99.90;;;-146.41;100.00;57768.22;5000913;28;20074;-69
2022/04/13 04:22:25;;;;;;;7.60;3.70;;;9.60;99.90;;;-146.41;100.00;57768.22;5001542;28;20065;-71
2022/04/13 04:24:53;;;;;;;7.80;3.40;;;9.50;99.90;;;-146.41;100.00;57768.22;5011296;28;20141;-70
2022/04/13 04:27:21;;;;;;;11.98;4.70;;;9.50;99.90;;;-146.41;100.00;57768.22;4995542;28;20081;-69
2022/04/13 04:29:49;;;;;;;8.82;3.53;;;9.50;99.90;;;-146.41;100.00;57768.22;4981730;28;20069;-69
2022/04/13 04:32:16;;;;;;;7.95;2.92;;;9.50;99.90;;;-146.41;100.00;57768.22;5000147;28;20125;-70
2022/04/13 04:34:43;;;;;;;10.13;4.88;;;9.50;99.90;;;-146.41;100.00;57768.22;5001748;28;20081;-70
2022/04/13 04:37:10;;;;;;;11.27;4.70;;;9.50;99.90;;;-146.41;100.00;57768.22;5000765;28;20126;-70
2022/04/13 04:39:37;;;;;;;9.05;4.35;;;9.30;99.90;;;-146.41;100.00;57768.22;4998942;28;20050;-70
2022/04/13 04:42:05;;;;;;;9.18;4.10;;;9.30;99.90;;;-146.41;100.00;57768.22;5002197;28;20467;-69
2022/04/13 04:44:32;;;;;;;8.05;3.83;;;9.30;99.90;;;-146.41;100.00;57768.22;5001216;28;20086;-70
2022/04/13 04:46:59;;;;;;;9.68;4.30;;;9.20;99.90;;;-146.41;100.00;57768.22;4998954;28;20080;-70
2022/04/13 04:49:26;;;;;;;8.77;4.05;;;9.20;99.90;;;-146.41;100.00;57768.22;4998431;28;20054;-70
2022/04/13 04:51:53;;;;;;;10.88;3.88;;;9.20;99.90;;;-146.41;100.00;57768.22;5001137;28;20085;-70
2022/04/13 04:54:22;;;;;;;10.20;3.85;;;9.20;99.90;;;-146.41;100.00;57768.22;4995863;28;20122;-69
2022/04/13 04:56:49;;;;;;;10.35;4.45;;;9.30;99.90;;;-146.41;100.00;57768.22;4996963;28;20103;-69
2022/04/13 04:59:16;;;;;;;8.52;3.70;;;9.20;99.90;;;-146.41;100.00;57768.22;4999773;28;20042;-69
2022/04/13 05:01:43;;;;;;;10.00;3.88;;;9.20;99.90;;;-146.41;100.00;57768.22;5000211;28;20124;-70
2022/04/13 05:04:10;;;;;;;9.25;3.80;;;9.30;99.90;;;-146.41;100.00;57768.22;5029917;28;20056;-70
2022/04/13 05:06:37;;;;;;;8.40;4.32;;;9.40;99.90;;;-146.41;100.00;57768.22;5000710;28;20082;-69
2022/04/13 05:09:04;;;;;;;8.63;4.35;;;9.50;99.90;;;-146.41;100.00;57768.22;4997219;28;20077;-69
2022/04/13 05:11:31;;;;;;;14.40;6.20;;;9.50;99.90;;;-146.41;100.00;57768.22;5000944;28;20081;-70
2022/04/13 05:13:58;;;;;;;10.38;6.22;;;9.50;99.90;;;-146.41;100.00;57768.22;4998040;28;20484;-69
2022/04/13 05:16:25;;;;;;;11.50;5.45;;;9.40;99.90;;;-146.41;100.00;57768.22;5000292;28;20484;-69
2022/04/13 05:18:53;;;;;;;12.63;5.57;;;9.50;99.90;;;-146.41;100.00;57768.22;4999724;28;20046;-69
2022/04/13 05:21:20;;;;;;;7.93;4.38;;;9.50;99.90;;;-146.41;100.00;57768.22;4994640;28;20078;-69
2022/04/13 05:23:47;;;;;;;7.72;4.88;;;9.60;99.90;;;-146.41;100.00;57768.22;4996203;28;20136;-70
2022/04/13 05:26:18;;;;;;;8.68;5.05;;;9.70;99.90;;;-146.41;100.00;57768.22;5002414;28;20105;-69
2022/04/13 05:28:47;;;;;;;11.52;5.25;;;9.80;99.90;;;-146.41;100.00;57768.22;4998914;28;20056;-70
2022/04/13 05:31:15;;;;;;;13.52;6.20;;;9.90;99.90;;;-146.41;100.00;57768.22;4995555;28;20141;-69
2022/04/13 05:33:43;;;;;;;15.80;7.35;;;10.00;99.90;;;-146.41;100.00;57768.22;4999870;28;20052;-70
2022/04/13 05:36:10;;;;;;;27.50;8.45;;;10.00;99.90;;;-146.41;100.00;57768.22;4997888;28;20144;-70
2022/04/13 05:38:39;;;;;;;12.10;6.05;;;10.00;99.90;;;-146.41;100.00;57768.22;4996788;28;20061;-70
2022/04/13 05:41:06;;;;;;;13.15;6.07;;;10.10;99.90;;;-146.41;100.00;57768.22;4995371;28;20532;-70
2022/04/13 05:43:34;;;;;;;14.73;7.30;;;10.20;99.90;;;-146.41;100.00;57768.22;5004231;28;20134;-70
2022/04/13 05:46:03;;;;;;;18.98;9.07;;;10.30;99.90;;;-146.41;100.00;57768.22;5002137;28;20046;-70
2022/04/13 05:48:30;;;;;;;16.23;8.40;;;10.40;99.90;;;-146.41;100.00;57768.22;4999740;28;20046;-70
2022/04/13 05:50:59;;;;;;;15.63;8.23;;;10.50;99.90;;;-146.41;100.00;57768.22;5002238;28;20080;-70
2022/04/13 05:53:29;;;;;;;15.10;6.65;;;10.50;99.90;;;-146.41;100.00;57768.22;4989507;28;20164;-69
2022/04/13 05:55:56;;;;;;;10.85;4.93;;;10.50;99.90;;;-146.41;100.00;57768.22;5003910;28;20153;-70
2022/04/13 05:58:25;;;;;;;12.20;5.65;;;10.30;99.90;;;-146.41;100.00;57768.22;5005388;28;20096;-70
2022/04/13 06:00:53;;;;;;;10.88;3.63;;;10.20;99.90;;;-146.41;100.00;57768.22;4990877;28;20100;-69
2022/04/13 06:03:23;;;;;;;13.23;5.97;;;10.40;99.90;;;-146.41;100.00;57768.22;4986076;28;20073;-70
2022/04/13 06:06:06;;;;;;;10.40;5.57;;;10.60;99.90;;;-146.41;100.00;57768.22;5007435;28;20093;-69
2022/04/13 06:08:33;;;;;;;12.70;5.38;;;10.80;99.90;;;-146.41;100.00;57768.22;4999173;28;20060;-70
2022/04/13 06:11:01;;;;;;;11.88;5.97;;;10.90;99.90;;;-146.41;100.00;57768.22;5000004;28;20464;-70
2022/04/13 06:13:28;;;;;;;13.68;6.55;;;11.00;99.90;;;-146.41;100.00;57768.22;4998649;28;20069;-70
2022/04/13 06:15:56;;;;;;;15.73;4.78;;;11.10;99.90;;;-146.41;100.00;57768.22;4998653;28;20073;-70
2022/04/13 06:18:23;;;;;;;9.73;4.30;;;11.20;99.90;;;-146.41;100.00;57768.22;5000644;28;20064;-70
2022/04/13 06:20:50;;;;;;;10.68;3.83;;;11.30;99.90;;;-146.41;100.00;57768.22;4999844;28;20080;-70
2022/04/13 06:23:18;;;;;;;9.63;3.75;;;11.50;99.90;;;-146.41;100.00;57768.22;5029939;28;20077;-70
2022/04/13 06:25:45;;;;;;;8.00;3.22;;;11.60;99.90;;;-146.41;100.00;57768.22;5005027;28;20120;-70
2022/04/13 06:28:12;;;;;;;7.65;3.60;;;11.80;99.90;;;-146.41;100.00;57768.22;5018427;28;20070;-71
2022/04/13 06:30:39;;;;;;;11.07;5.07;;;11.90;99.90;;;-146.41;100.00;57768.22;5004158;28;20132;-70
2022/04/13 06:33:06;;;;;;;12.52;5.53;;;11.90;99.90;;;-146.41;100.00;57768.22;4998184;28;20046;-69
2022/04/13 06:35:34;;;;;;;8.70;4.78;;;11.90;99.90;;;-146.41;100.00;57768.22;4999981;28;20046;-69
2022/04/13 06:38:01;;;;;;;15.30;5.38;;;12.00;99.90;;;-146.41;100.00;57768.22;4999531;28;20051;-70
2022/04/13 06:40:28;;;;;;;14.30;4.68;;;12.00;99.90;;;-146.41;100.00;57768.22;4998056;28;20046;-69
2022/04/13 06:42:56;;;;;;;7.47;4.32;;;12.00;99.90;;;-146.41;100.00;57768.22;5003915;28;20099;-70
2022/04/13 06:45:24;;;;;;;6.18;2.58;;;12.00;99.90;;;-146.41;100.00;57768.22;4997640;28;20047;-70
2022/04/13 06:47:52;;;;;;;7.15;2.63;;;12.10;99.90;;;-146.41;100.00;57768.22;5000858;28;20517;-69
2022/04/13 06:50:19;;;;;;;9.45;3.30;;;12.30;99.90;;;-146.41;100.00;57768.22;5009731;28;20535;-69
2022/04/13 06:52:46;;;;;;;16.50;5.32;;;12.50;99.90;;;-146.41;100.00;57768.22;5007580;28;20137;-69
2022/04/13 06:55:13;;;;;;;12.68;3.40;;;12.70;99.90;;;-146.41;100.00;57768.22;4999600;28;20538;-69
2022/04/13 06:57:41;;;;;;;11.23;3.28;;;12.90;99.90;;;-146.41;100.00;57768.22;5000806;28;20077;-69
2022/04/13 07:00:11;;;;;;;7.72;1.60;;;13.10;99.90;;;-146.41;100.00;57768.22;5003592;28;20053;-69
2022/04/13 07:02:40;;;;;;;6.10;1.60;;;13.40;99.90;;;-146.41;100.00;57768.22;5002902;28;20130;-70
2022/04/13 07:05:29;;;;;;;9.43;1.70;;;13.60;99.90;;;-146.41;100.00;57768.22;5003504;28;20297;-69
2022/04/13 07:07:57;;;;;;;7.68;2.65;;;13.80;99.90;;;-146.41;100.00;57768.22;5000893;28;20556;-70
2022/04/13 07:10:27;;;;;;;7.45;2.33;;;14.00;99.90;;;-146.41;100.00;57768.22;5002791;28;20046;-69
2022/04/13 07:12:55;;;;;;;5.50;1.98;;;14.10;99.90;;;-146.41;100.00;57768.22;4999359;28;20129;-68
2022/04/13 07:15:25;;;;;;;3.58;1.23;;;14.30;99.90;;;-146.41;100.00;57768.22;4986835;28;20416;-68
2022/04/13 07:17:54;;;;;;;6.05;1.73;;;14.40;99.90;;;-146.41;100.00;57768.22;5009577;28;20066;-69
2022/04/13 07:20:21;;;;;;;5.13;1.48;;;14.60;99.90;;;-146.41;100.00;57768.22;4999740;28;20080;-69
2022/04/13 07:22:52;;;;;;;4.40;1.25;;;14.80;99.90;;;-146.41;100.00;57768.22;5006251;28;20046;-69
2022/04/13 07:25:21;;;;;;;9.40;1.77;;;15.00;99.90;;;-146.41;100.00;57768.22;5001047;28;20057;-69
2022/04/13 07:27:49;;;;;;;4.22;1.45;;;15.30;99.90;;;-146.41;100.00;57768.22;5002244;28;20267;-68
2022/04/13 07:30:16;;;;;;;5.13;1.67;;;15.40;99.90;;;-146.41;100.00;57768.22;5001268;28;20056;-69
2022/04/13 07:32:51;;;;;;;4.20;1.42;;;15.50;99.90;;;-146.41;100.00;57768.22;5005443;28;20145;-69
2022/04/13 07:35:18;;;;;;;4.80;0.98;;;15.70;99.90;;;-146.41;100.00;57768.22;5001174;28;20129;-69
2022/04/13 07:37:46;;;;;;;7.72;1.35;;;15.80;98.70;;;-146.41;100.00;57768.22;5000276;28;20080;-69
2022/04/13 07:40:17;;;;;;;2.75;1.00;;;16.00;98.80;;;-146.41;100.00;57768.22;4985455;28;20387;-69
2022/04/13 07:42:45;;;;;;;5.97;1.30;;;16.20;99.80;;;-146.41;100.00;57768.22;5011810;28;20073;-70
2022/04/13 07:45:12;;;;;;;5.72;1.15;;;16.50;97.40;;;-146.41;100.00;57768.22;4999593;28;20054;-69
2022/04/13 07:47:39;;;;;;;4.35;1.02;;;16.70;99.10;;;-146.41;100.00;57768.22;5000933;28;20062;-69
2022/04/13 07:50:12;;;;;;;6.97;1.20;;;;;;;-146.41;100.00;57768.22;5000262;28;20050;-69
2022/04/13 07:52:41;;;;;;;5.72;1.02;;;16.90;95.70;;;-146.41;100.00;57768.22;5009801;28;20120;-70
2022/04/13 07:55:10;;;;;;;5.78;0.85;;;16.90;95.30;;;-146.41;100.00;57768.22;5001802;28;20133;-69
2022/04/13 07:57:39;;;;;;;3.10;1.05;;;17.00;95.70;;;-146.41;100.00;57768.22;5006551;28;20050;-69
2022/04/13 08:00:09;;;;;;;3.72;1.00;;;17.10;94.60;;;-146.41;100.00;57768.22;4981050;28;20089;-69
2022/04/13 08:02:37;;;;;;;4.65;1.42;;;17.20;95.00;;;-146.41;100.00;57768.22;5005430;28;20136;-69
2022/04/13 08:05:05;;;;;;;5.45;0.95;;;17.40;93.90;;;-146.41;100.00;57768.22;5003053;28;20046;-69
2022/04/13 08:07:32;;;;;;;4.28;1.02;;;17.50;93.80;;;-146.41;100.00;57768.22;4996731;28;20104;-69
2022/04/13 08:09:59;;;;;;;5.55;1.08;;;17.70;94.20;;;-146.41;100.00;57768.22;4998546;28;20275;-69
2022/04/13 08:12:30;;;;;;;2.58;0.70;;;17.80;94.30;;;-146.41;100.00;57768.22;4983824;28;20142;-69
2022/04/13 08:14:59;;;;;;;4.43;0.90;;;17.80;94.00;;;-146.41;100.00;57768.22;4972228;28;20110;-69
2022/04/13 08:17:27;;;;;;;2.72;0.82;;;17.80;93.30;;;-146.41;100.00;57768.22;4981076;28;20081;-69
2022/04/13 08:19:54;;;;;;;5.28;1.85;;;17.90;93.80;;;-146.41;100.00;57768.22;4998558;28;20041;-69
2022/04/13 08:22:31;;;;;;;5.78;1.33;;;18.00;94.10;;;-146.41;100.00;57768.22;5003436;28;20104;-68
2022/04/13 08:24:58;;;;;;;5.55;1.13;;;18.10;93.20;;;-146.41;100.00;57768.22;5004172;28;20053;-70
2022/04/13 08:27:25;;;;;;;6.97;1.17;;;18.30;93.80;;;-146.41;100.00;57768.22;4996822;28;20062;-70
2022/04/13 08:29:53;;;;;;;5.78;1.05;;;18.50;93.20;;;-146.41;100.00;57768.22;4986498;28;20048;-70
2022/04/13 08:32:21;;;;;;;5.38;1.10;;;18.80;93.60;;;-146.41;100.00;57768.22;5002189;28;20054;-69
2022/04/13 08:34:52;;;;;;;5.03;1.17;;;19.10;93.50;;;-146.41;100.00;57768.22;5029229;28;20069;-69
2022/04/13 08:37:25;;;;;;;4.00;1.08;;;19.40;92.80;;;-146.41;100.00;57768.22;4998551;28;20128;-68
2022/04/13 08:39:52;;;;;;;4.30;0.85;;;19.70;92.30;;;-146.41;100.00;57768.22;5002048;28;20076;-68
2022/04/13 08:42:50;;;;;;;5.25;0.80;;;19.90;92.50;;;-146.41;100.00;57768.22;4955464;28;1243244;-70
2022/04/13 08:45:30;;;;;;;3.17;0.95;;;20.30;90.40;;;-146.41;100.00;57768.22;5002616;28;20112;-71
2022/04/13 08:47:59;;;;;;;4.38;1.00;;;20.30;87.60;;;-146.41;100.00;57768.22;4996605;28;20423;-68
2022/04/13 08:50:30;;;;;;;4.13;0.95;;;20.30;88.50;;;-146.41;100.00;57768.22;4996799;28;20057;-69
2022/04/13 08:53:02;;;;;;;3.28;0.77;;;20.30;90.00;;;-146.41;100.00;57768.22;4994491;28;20074;-69
2022/04/13 08:55:31;;;;;;;5.25;0.80;;;20.40;87.30;;;-146.41;100.00;57768.22;4995405;28;20203;-69
2022/04/13 08:58:24;;;;;;;2.08;0.73;;;20.70;89.10;;;-146.41;100.00;57768.22;4997373;28;20100;-69
2022/04/13 09:00:57;;;;;;;12.35;1.00;;;21.00;88.70;;;-146.41;100.00;57768.22;4985302;28;20058;-69
2022/04/13 09:03:42;;;;;;;5.38;0.80;;;21.30;87.40;;;-146.41;100.00;57768.22;5001144;28;20077;-69
2022/04/13 09:06:12;;;;;;;4.28;0.93;;;21.60;86.90;;;-146.41;100.00;57768.22;5005286;28;20077;-68
2022/04/13 09:08:52;;;;;;;3.25;0.90;;;21.60;83.70;;;-146.41;100.00;57768.22;4992538;28;20503;-69
2022/04/13 09:11:21;;;;;;;3.97;0.85;;;21.70;83.60;;;-146.41;100.00;57768.22;4997491;28;20050;-68
2022/04/13 09:13:50;;;;;;;4.20;0.90;;;21.80;83.60;;;-146.41;100.00;57768.22;4999670;28;20054;-70
2022/04/13 09:16:18;;;;;;;2.72;0.90;;;22.00;83.00;;;-146.41;100.00;57768.22;4998313;28;20057;-69
2022/04/13 09:18:46;;;;;;;3.60;1.05;;;22.30;82.30;;;-146.41;100.00;57768.22;5001111;28;20097;-69
2022/04/13 09:21:20;;;;;;;5.40;0.90;;;22.40;81.80;;;-146.41;100.00;57768.22;5001022;28;20080;-70
2022/04/13 09:23:52;;;;;;;2.90;0.65;;;22.30;80.10;;;-146.41;100.00;57768.22;4999802;28;20088;-69
2022/04/13 09:26:20;;;;;;;4.15;0.82;;;22.40;82.30;;;-146.41;100.00;57768.22;5001377;28;20121;-69
2022/04/13 09:28:47;;;;;;;5.22;1.30;;;22.80;81.70;;;-146.41;100.00;57768.22;5002267;28;20061;-70
2022/04/13 09:31:14;;;;;;;5.40;0.90;;;22.80;79.90;;;-146.41;100.00;57768.22;4953888;28;20046;-69
2022/04/13 09:33:41;;;;;;;5.63;0.90;;;22.70;78.20;;;-146.41;100.00;57768.22;5001410;28;20161;-70
2022/04/13 09:36:09;;;;;;;5.22;0.88;;;22.50;77.80;;;-146.41;100.00;57768.22;4995815;28;20054;-69
2022/04/13 09:38:36;;;;;;;3.60;0.73;;;22.50;79.00;;;-146.41;100.00;57768.22;4999567;28;20137;-70
2022/04/13 09:41:11;;;;;;;4.15;0.70;;;22.50;78.50;;;-146.41;100.00;57768.22;4998476;28;20452;-70
2022/04/13 09:43:38;;;;;;;5.57;1.17;;;22.50;77.80;;;-146.41;100.00;57768.22;5000925;28;20058;-70
2022/04/13 09:46:05;;;;;;;3.40;0.68;;;22.40;78.80;;;-146.41;100.00;57768.22;5001451;28;20096;-70
2022/04/13 09:48:37;;;;;;;5.68;0.95;;;22.60;80.40;;;-146.41;100.00;57768.22;5001719;28;20058;-70
2022/04/13 09:51:05;;;;;;;5.38;1.10;;;22.70;78.70;;;-146.41;100.00;57768.22;5006560;28;20149;-70
2022/04/13 09:53:32;;;;;;;5.05;0.95;;;22.70;78.20;;;-146.41;100.00;57768.22;5000413;28;20054;-70
2022/04/13 09:56:00;;;;;;;5.47;0.77;;;22.60;78.40;;;-146.41;100.00;57768.22;4999798;28;20164;-70
2022/04/13 09:58:33;;;;;;;6.85;0.80;;;22.70;78.90;;;-146.41;100.00;57768.22;5000769;28;20137;-70
2022/04/13 10:01:02;;;;;;;4.15;0.90;;;22.90;77.50;;;-146.41;100.00;57768.22;4999669;28;20404;-70
2022/04/13 10:03:29;;;;;;;3.05;0.68;;;22.90;78.00;;;-146.41;100.00;57768.22;4996068;28;20049;-70
2022/04/13 10:05:59;;;;;;;5.38;0.82;;;22.90;78.30;;;-146.41;100.00;57768.22;4998777;28;20419;-70
2022/04/13 10:08:28;;;;;;;6.65;1.13;;;22.90;79.00;;;-146.41;100.00;57768.22;4996631;28;20046;-70
2022/04/13 10:10:58;;;;;;;5.38;0.98;;;23.00;80.00;;;-146.41;100.00;57768.22;4996769;28;20124;-71